Time;durP1;ratioP1;P1;durP2;ratioP2;P2;SDS_P1;SDS_P2;PMS_P1;PMS_P2;Temp;Humidity;BMP_temperature;BMP_pressure;BME280_temperature;BME280_humidity;BME280_pressure;Samples;Min_cycle;Max_cycle;Signal;HPM_P1;HPM_P2
2021/10/07 00:09:08;;;;;;;30.15;25.10;;;22.50;57.20;;;;;;31629286;28;20044;-48
2021/10/07 00:24:11;;;;;;;31.65;26.73;;;22.50;57.50;;;;;;31633367;28;20095;-49
2021/10/07 00:39:14;;;;;;;28.55;23.63;;;22.40;57.50;;;;;;31624628;28;20067;-42
2021/10/07 00:54:23;;;;;;;26.75;23.15;;;22.40;57.70;;;;;;31623806;28;20086;-43
2021/10/07 01:09:27;;;;;;;27.67;23.03;;;22.30;57.70;;;;;;31622834;28;20056;-44
2021/10/07 01:24:29;;;;;;;27.30;21.90;;;22.40;57.60;;;;;;31622183;28;20049;-46
2021/10/07 01:39:31;;;;;;;25.67;20.75;;;22.30;57.80;;;;;;31617864;28;20076;-42
2021/10/07 01:54:33;;;;;;;25.60;20.85;;;22.30;57.90;;;;;;31624146;28;20127;-50
2021/10/07 02:09:36;;;;;;;22.90;19.15;;;22.30;57.70;;;;;;31642566;28;20044;-45
2021/10/07 02:24:38;;;;;;;24.83;18.83;;;22.20;57.90;;;;;;31639658;28;20068;-53
2021/10/07 02:39:40;;;;;;;19.13;16.10;;;22.30;57.50;;;;;;31636401;28;20100;-46
2021/10/07 02:54:42;;;;;;;18.23;15.90;;;22.70;57.70;;;;;;31638132;28;20045;-44
2021/10/07 03:09:44;;;;;;;21.45;15.20;;;22.90;57.40;;;;;;31632723;28;20068;-46
2021/10/07 03:24:46;;;;;;;17.67;15.15;;;22.90;57.20;;;;;;31631227;28;20052;-44
2021/10/07 03:39:51;;;;;;;15.43;13.27;;;22.80;57.20;;;;;;31627635;28;20424;-44
2021/10/07 03:54:54;;;;;;;15.48;13.43;;;22.70;57.40;;;;;;31625905;28;20067;-47
2021/10/07 04:09:56;;;;;;;12.85;9.85;;;22.70;57.50;;;;;;31627193;28;20116;-45
2021/10/07 04:24:58;;;;;;;15.77;10.35;;;22.60;57.60;;;;;;31602491;28;20044;-48
2021/10/07 04:40:00;;;;;;;16.23;9.50;;;22.60;58.40;;;;;;31621849;28;20079;-45
2021/10/07 04:55:03;;;;;;;14.45;9.93;;;22.60;58.20;;;;;;31619229;28;20059;-49
2021/10/07 05:10:09;;;;;;;54.80;16.98;;;22.50;58.30;;;;;;31615843;28;20075;-47
2021/10/07 05:25:11;;;;;;;53.13;21.92;;;22.50;59.10;;;;;;31615728;28;20044;-49
2021/10/07 05:40:13;;;;;;;78.65;43.85;;;22.40;59.90;;;;;;31638124;28;20048;-48
2021/10/07 05:55:15;;;;;;;54.20;26.60;;;22.20;56.30;;;;;;31638169;28;20033;-52
2021/10/07 06:10:18;;;;;;;34.20;18.00;;;22.20;54.60;;;;;;31636923;28;20060;-51
2021/10/07 06:25:21;;;;;;;50.42;32.75;;;22.10;52.40;;;;;;31669867;28;20064;-49
2021/10/07 06:40:23;;;;;;;39.05;21.85;;;22.00;52.30;;;;;;31632293;28;20099;-54
2021/10/07 06:55:25;;;;;;;37.63;19.77;;;21.90;51.00;;;;;;31631557;28;20092;-51
2021/10/07 07:10:27;;;;;;;29.83;14.57;;;21.80;49.80;;;;;;31628689;28;20079;-50
2021/10/07 07:25:29;;;;;;;35.30;12.70;;;21.80;49.20;;;;;;31627756;28;20077;-54
2021/10/07 07:40:33;;;;;;;31.05;10.82;;;21.60;48.50;;;;;;31624589;28;20053;-48
2021/10/07 07:55:35;;;;;;;25.13;8.90;;;21.60;47.30;;;;;;31601438;28;20121;-46
2021/10/07 08:10:37;;;;;;;45.47;26.77;;;21.50;47.60;;;;;;31691160;28;20099;-40
2021/10/07 08:25:40;;;;;;;35.72;20.02;;;21.70;48.40;;;;;;31749655;28;20047;-52
2021/10/07 08:40:43;;;;;;;33.30;15.75;;;22.20;46.90;;;;;;31747029;28;20052;-43
2021/10/07 08:55:45;;;;;;;28.13;12.32;;;22.30;45.80;;;;;;31746571;28;20103;-46
2021/10/07 09:10:51;;;;;;;31.50;11.30;;;22.20;47.20;;;;;;31766240;28;20109;-46
2021/10/07 09:25:57;;;;;;;37.60;19.05;;;22.30;47.90;;;;;;31771441;28;20043;-48
2021/10/07 09:41:09;;;;;;;32.13;19.25;;;22.10;48.90;;;;;;31768161;28;20099;-39
2021/10/07 09:56:24;;;;;;;29.15;17.85;;;22.20;49.30;;;;;;31764775;28;20048;-51
2021/10/07 10:11:26;;;;;;;47.55;30.55;;;22.20;50.40;;;;;;31763468;28;20071;-52
2021/10/07 10:26:29;;;;;;;30.52;19.77;;;22.00;49.40;;;;;;31762153;28;20048;-48
2021/10/07 10:41:50;;;;;;;35.92;17.55;;;22.10;49.90;;;;;;31765429;28;20114;-44
2021/10/07 10:56:59;;;;;;;25.75;17.45;;;22.00;49.60;;;;;;31761701;28;20437;-49
2021/10/07 11:12:01;;;;;;;;;;;21.80;51.40;;;;;;31757810;28;20095;-56
2021/10/07 11:27:04;;;;;;;24.02;14.73;;;22.10;50.90;;;;;;31755461;28;19921;-55
2021/10/07 11:42:06;;;;;;;23.65;15.00;;;22.50;50.60;;;;;;31807531;28;20066;-50
2021/10/07 11:57:08;;;;;;;38.35;14.45;;;22.70;50.70;;;;;;31843964;28;20126;-42
2021/10/07 12:12:10;;;;;;;61.90;34.47;;;22.70;50.90;;;;;;31755227;28;20051;-48
2021/10/07 12:27:15;;;;;;;42.03;24.73;;;22.70;51.80;;;;;;31748459;28;20203;-45
2021/10/07 12:42:18;;;;;;;41.15;21.83;;;22.50;51.80;;;;;;31748790;28;20063;-42
2021/10/07 12:57:38;;;;;;;27.80;18.15;;;22.40;51.40;;;;;;31748241;28;20067;-41
2021/10/07 13:12:40;;;;;;;25.10;14.43;;;22.30;51.10;;;;;;31747603;28;20048;-42
2021/10/07 13:27:44;;;;;;;23.60;14.13;;;22.30;50.70;;;;;;31748724;28;20123;-43
2021/10/07 13:42:46;;;;;;;23.27;12.73;;;22.30;50.50;;;;;;31750114;28;20048;-43
2021/10/07 13:57:51;;;;;;;21.08;10.40;;;22.30;51.10;;;;;;31770086;28;20064;-44
2021/10/07 14:12:55;;;;;;;33.17;12.13;;;22.00;49.60;;;;;;31767906;28;20357;-43
2021/10/07 14:28:00;;;;;;;54.58;28.38;;;22.10;51.00;;;;;;31763474;28;20052;-56
2021/10/07 14:43:02;;;;;;;29.13;17.65;;;22.20;51.10;;;;;;31761053;28;20077;-40
2021/10/07 14:58:06;;;;;;;27.63;13.20;;;22.40;50.80;;;;;;31763039;28;20051;-47
2021/10/07 15:13:08;;;;;;;38.92;21.55;;;22.70;50.50;;;;;;31759844;28;20062;-46
2021/10/07 15:28:10;;;;;;;37.67;21.05;;;22.80;50.80;;;;;;31735372;28;20051;-49
2021/10/07 15:43:15;;;;;;;30.75;18.27;;;22.70;52.30;;;;;;31630936;28;20131;-39
2021/10/07 15:58:17;;;;;;;33.17;17.45;;;22.70;52.30;;;;;;31736928;28;20126;-44
2021/10/07 16:13:21;;;;;;;30.25;16.25;;;22.80;52.50;;;;;;31754242;28;20068;-51
2021/10/07 16:28:24;;;;;;;21.17;14.00;;;22.80;53.20;;;;;;31752488;28;20077;-46
2021/10/07 16:43:27;;;;;;;39.97;16.80;;;22.70;53.30;;;;;;31752583;28;20060;-43
2021/10/07 16:58:30;;;;;;;29.73;11.75;;;22.70;54.60;;;;;;31749413;28;20089;-53
2021/10/07 17:13:32;;;;;;;22.83;8.65;;;22.60;54.70;;;;;;31383685;28;10000248;-51
2021/10/07 17:28:34;;;;;;;16.38;7.60;;;22.40;50.00;;;;;;31752186;28;20044;-44
2021/10/07 17:43:36;;;;;;;16.85;5.18;;;22.20;48.70;;;;;;31768489;28;20056;-42
2021/10/07 17:58:38;;;;;;;14.77;5.15;;;22.20;48.40;;;;;;31767954;28;20079;-41
2021/10/07 18:13:40;;;;;;;18.25;4.55;;;22.20;50.30;;;;;;31742296;28;20048;-44
2021/10/07 18:28:42;;;;;;;11.52;4.70;;;22.30;51.00;;;;;;31757395;28;20044;-41
2021/10/07 18:43:46;;;;;;;9.40;4.47;;;22.30;51.50;;;;;;31759802;28;20077;-47
2021/10/07 18:58:48;;;;;;;7.13;3.78;;;22.40;51.80;;;;;;31761587;28;20126;-40
2021/10/07 19:13:50;;;;;;;7.40;4.38;;;22.50;52.10;;;;;;31758796;28;20100;-44
2021/10/07 19:28:53;;;;;;;5.93;3.38;;;22.50;52.00;;;;;;31759951;28;20089;-46
2021/10/07 19:44:00;;;;;;;4.95;3.70;;;22.60;52.10;;;;;;31740791;28;20060;-41
2021/10/07 19:59:03;;;;;;;5.07;3.03;;;22.60;52.40;;;;;;31756232;28;20100;-47
2021/10/07 20:14:05;;;;;;;7.43;5.78;;;22.60;52.60;;;;;;31752541;28;20040;-50
2021/10/07 20:29:07;;;;;;;6.55;4.30;;;22.40;52.60;;;;;;31752080;28;20043;-44
2021/10/07 20:44:10;;;;;;;6.63;4.75;;;22.50;53.20;;;;;;31753693;28;20068;-51
2021/10/07 20:59:12;;;;;;;5.30;3.95;;;22.50;53.50;;;;;;31752971;28;20060;-47
2021/10/07 21:14:15;;;;;;;5.10;3.35;;;22.50;53.70;;;;;;31753626;28;20059;-47
2021/10/07 21:29:17;;;;;;;4.22;3.53;;;22.40;53.80;;;;;;31752044;28;20044;-46
2021/10/07 21:44:20;;;;;;;4.60;3.35;;;22.40;53.90;;;;;;31746818;28;20068;-46
2021/10/07 21:59:22;;;;;;;4.50;3.00;;;22.40;53.90;;;;;;31749612;28;20040;-46
2021/10/07 22:14:24;;;;;;;3.03;2.78;;;22.40;54.10;;;;;;31760265;28;20037;-46
2021/10/07 22:29:26;;;;;;;4.10;3.00;;;22.40;54.50;;;;;;31770523;28;20036;-48
2021/10/07 22:44:28;;;;;;;3.15;2.85;;;22.40;54.70;;;;;;31768124;28;20108;-45
2021/10/07 22:59:30;;;;;;;3.20;2.50;;;22.30;55.20;;;;;;31767336;28;20059;-43
2021/10/07 23:14:32;;;;;;;2.30;1.98;;;22.40;55.70;;;;;;31765474;28;20139;-42
2021/10/07 23:29:34;;;;;;;4.15;2.10;;;22.30;55.70;;;;;;31763377;28;20097;-43
2021/10/07 23:44:36;;;;;;;2.28;2.08;;;22.30;55.80;;;;;;31760775;28;20079;-47
2021/10/07 23:59:38;;;;;;;2.50;2.00;;;22.30;55.60;;;;;;31751775;28;20122;-45
